1CD1 weather

Reed Airport
Nunn, Colorado, United States

Public forecast

Using degrees Fahrenheit for public forecast. Weather courtesy of forecast.io.

METAR (pilot weather report)

Closest report is Northern Colorado Regional Airport, 15.8 nm (29.2 km) SSW. Retrieved 2019/08/22 03:56 UTC (7 minutes ago):

KFNL 220356Z AUTO 18008KT 10SM CLR 22/13 A3014 RMK AO2 LTG DSNT N SLP146 T02170133

TAF (pilot weather forecast)

Forecast is more than 12 hours old.

Closest forecast is Cheyenne Regional Jerry Olson Field, 28.1 nm (52.0 km) N. Retrieved 2019/08/21 00:22 UTC (1 day ago):

TAF KCYS 212320Z 2200/2224 15011KT P6SM VCTS SCT040CB BKN150 FM220300 16011KT P6SM BKN100 FM220600 18007KT P6SM BKN015 FM221500 19011KT P6SM SCT025 FM221700 17012G24KT P6SM BKN120